Cambridge, Minnesota
Current Conditions -  °F | °C
As of 4:56 AM on Monday 20 Oct 2014 (Local Time) from KCBG Reporting Station
Clear Clear  
Wind Chill: 44°   Ceiling: Unl
Heat Index: 46°   Visibility: 10mi
Dew Point: 37°   Wind: 5mph
Humidity: 71%   Direction: 290°WNW
Pressure: 29.91"   Gusts: NA
Location:  45.57°N, 93.22°W
Report Text: KCBG 200956Z AUTO 29004KT 10SM CLR 08/03 A2991 RMK AO2
Loading
Personal Weather Stations






























Interactive Weather Map
Tropical Storm Tracking
New forecast layout! Learn more

10-Day Weather Forecast

Advertisements
Track Severe Weather on mobile